Main page
METAR-TAF:

METAR-TAF

Airports :

Mahshahr Airport

Mahshahr, Iran

latitude: 30-33-23N, longitude: 049-09-07E, elevation: 2 m

Current weather observation

The report was made 14 minutes ago, at 08:00 UTC
Wind 4 kt from the West
Temperature 39°C
Humidity 26%
Pressure 1000 hPa
Visibility: 8000 m

METAR: OIAM 250800Z 27004KT 8000 NSC 39/16 Q1000

Time: 12:44 (08:14 UTC)


TAF: missing

Weather observations and forecasts of more than 4000 airports (METAR and TAF reports).

The available stations are represented by yellow and red dots on the map.

Hover mouse over dot to see the name of the station.

Then click to see weather observations and forecasts.

To change the map : click on the green buttons with a black cross to zoom in, on the green button with a dash to zoom out, or on the green arrows for adjacent maps.


METAR-TAF: